< < Back
Terminal Aerodrome Forecast


Current Version              Previous Versions:   1  2  3  4  5  6  7  8  9  

Terminal Aerodrome Forecast

727
FTUS42 KCAE 210500
TAFAGS
TAF
KAGS 210539Z 2106/2206 VRB03KT P6SM BKN150
     FM210900 VRB03KT 4SM BR SCT150
     FM211300 VRB04KT P6SM SCT150
     FM211600 29005KT P6SM FEW050 SCT150
     FM220000 VRB03KT P6SM BKN150=

Latest METAR

710
SAUS70 KWBC 211400 RRL
MTRAGS
METAR KAGS 211353Z 32003KT 10SM CLR 28/21 A3010 RMK AO2 SLP190
T02780206


USA.gov is the U.S. government's official web portal to all federal, state and local government web resources and services.